NOO22L KMIA-MPTO
Flight info
| Callsign | NOO22L |
|---|---|
| Flight time | 2h 29m |
| Altitude | 37000 |
| Route | MAYNR3 FUNDI UM335 LEPON/N0459F390 UM335 ARNAL DCT SEKMA OSUPA2A |
| Aircraft | B752/M-SDE3FGHIM3RWXY/LB1 |
Departure
| Time | 2026-05-04 23:52 |
|---|---|
| Airport | Miami International Airport (KMIA) |
Arrival
| Time | 2026-05-05 02:21 |
|---|---|
| Airport | Tocumen International Airport (MPTO) |
| Time | Latitude | Longitude | Altitude | Speed | Heading |
|---|---|---|---|---|---|
| 2026-05-04 23:15 | 25.79172 | -80.29269 | 17 ft | 0 kts | 211° |
| 2026-05-04 23:36 | 25.79176 | -80.29266 | 17 ft | 2 kts | 211° |
| 2026-05-04 23:36 | 25.79188 | -80.29258 | 17 ft | 2 kts | 211° |
| 2026-05-04 23:36 | 25.79201 | -80.29250 | 16 ft | 2 kts | 211° |
| 2026-05-04 23:37 | 25.79214 | -80.29241 | 17 ft | 2 kts | 211° |
| 2026-05-04 23:37 | 25.79226 | -80.29236 | 17 ft | 2 kts | 181° |
| 2026-05-04 23:37 | 25.79242 | -80.29240 | 17 ft | 2 kts | 148° |
| 2026-05-04 23:37 | 25.79252 | -80.29252 | 16 ft | 2 kts | 116° |
| 2026-05-04 23:38 | 25.79259 | -80.29266 | 16 ft | 2 kts | 119° |
| 2026-05-04 23:38 | 25.79266 | -80.29281 | 16 ft | 2 kts | 120° |
| 2026-05-04 23:38 | 25.79274 | -80.29295 | 17 ft | 2 kts | 119° |
| 2026-05-04 23:38 | 25.79280 | -80.29307 | 16 ft | 0 kts | 120° |
| 2026-05-04 23:42 | 25.79277 | -80.29302 | 16 ft | 3 kts | 120° |
| 2026-05-04 23:43 | 25.79261 | -80.29271 | 16 ft | 5 kts | 120° |
| 2026-05-04 23:43 | 25.79239 | -80.29228 | 16 ft | 6 kts | 119° |
| 2026-05-04 23:43 | 25.79215 | -80.29181 | 16 ft | 7 kts | 119° |
| 2026-05-04 23:43 | 25.79186 | -80.29123 | 16 ft | 9 kts | 119° |
| 2026-05-04 23:44 | 25.79150 | -80.29053 | 16 ft | 11 kts | 120° |
| 2026-05-04 23:44 | 25.79108 | -80.28970 | 16 ft | 13 kts | 118° |
| 2026-05-04 23:44 | 25.79052 | -80.28883 | 16 ft | 14 kts | 151° |
| 2026-05-04 23:44 | 25.78957 | -80.28886 | 16 ft | 14 kts | 224° |
| 2026-05-04 23:45 | 25.78918 | -80.28989 | 16 ft | 15 kts | 255° |
| 2026-05-04 23:45 | 25.78903 | -80.29106 | 16 ft | 15 kts | 267° |
| 2026-05-04 23:45 | 25.78898 | -80.29231 | 16 ft | 16 kts | 267° |
| 2026-05-04 23:45 | 25.78893 | -80.29364 | 16 ft | 17 kts | 268° |
| 2026-05-04 23:46 | 25.78887 | -80.29505 | 16 ft | 18 kts | 268° |
| 2026-05-04 23:46 | 25.78881 | -80.29650 | 16 ft | 19 kts | 267° |
| 2026-05-04 23:46 | 25.78874 | -80.29805 | 16 ft | 20 kts | 268° |
| 2026-05-04 23:46 | 25.78870 | -80.29965 | 16 ft | 21 kts | 269° |
| 2026-05-04 23:47 | 25.78861 | -80.30133 | 16 ft | 22 kts | 266° |
| 2026-05-04 23:47 | 25.78853 | -80.30303 | 16 ft | 21 kts | 266° |
| 2026-05-04 23:47 | 25.78846 | -80.30462 | 16 ft | 19 kts | 267° |
| 2026-05-04 23:47 | 25.78840 | -80.30607 | 16 ft | 18 kts | 267° |
| 2026-05-04 23:48 | 25.78835 | -80.30739 | 16 ft | 16 kts | 268° |
| 2026-05-04 23:48 | 25.78830 | -80.30861 | 16 ft | 14 kts | 268° |
| 2026-05-04 23:48 | 25.78826 | -80.30971 | 16 ft | 13 kts | 267° |
| 2026-05-04 23:48 | 25.78821 | -80.31075 | 16 ft | 13 kts | 266° |
| 2026-05-04 23:49 | 25.78816 | -80.31172 | 16 ft | 11 kts | 267° |
| 2026-05-04 23:49 | 25.78812 | -80.31256 | 16 ft | 10 kts | 268° |
| 2026-05-04 23:49 | 25.78809 | -80.31334 | 16 ft | 9 kts | 262° |
| 2026-05-04 23:49 | 25.78769 | -80.31374 | 16 ft | 7 kts | 188° |
| 2026-05-04 23:50 | 25.78720 | -80.31376 | 16 ft | 6 kts | 181° |
| 2026-05-04 23:50 | 25.78674 | -80.31374 | 16 ft | 6 kts | 176° |
| 2026-05-04 23:50 | 25.78623 | -80.31347 | 16 ft | 11 kts | 115° |
| 2026-05-04 23:50 | 25.78619 | -80.31303 | 16 ft | 0 kts | 89° |
| 2026-05-04 23:51 | 25.78620 | -80.31274 | 16 ft | 12 kts | 89° |
| 2026-05-04 23:51 | 25.78632 | -80.31004 | 16 ft | 65 kts | 88° |
| 2026-05-04 23:51 | 25.78663 | -80.30269 | 17 ft | 126 kts | 87° |
| 2026-05-04 23:52 | 25.78710 | -80.29096 | 190 ft | 168 kts | 85° |
| 2026-05-04 23:52 | 25.78813 | -80.27785 | 922 ft | 175 kts | 83° |
| 2026-05-04 23:52 | 25.78749 | -80.26450 | 1524 ft | 186 kts | 109° |
| 2026-05-04 23:52 | 25.78010 | -80.25111 | 1718 ft | 221 kts | 124° |
| 2026-05-04 23:53 | 25.77022 | -80.23708 | 2232 ft | 241 kts | 127° |
| 2026-05-04 23:53 | 25.75971 | -80.22279 | 3124 ft | 244 kts | 127° |
| 2026-05-04 23:53 | 25.74898 | -80.20815 | 3998 ft | 249 kts | 128° |
| 2026-05-04 23:53 | 25.73532 | -80.19548 | 4506 ft | 272 kts | 154° |
| 2026-05-04 23:54 | 25.71662 | -80.19098 | 5370 ft | 279 kts | 179° |
| 2026-05-04 23:54 | 25.69780 | -80.19070 | 6350 ft | 280 kts | 179° |
| 2026-05-04 23:54 | 25.67806 | -80.19035 | 7171 ft | 287 kts | 183° |
| 2026-05-04 23:54 | 25.65837 | -80.19260 | 8116 ft | 288 kts | 188° |
| 2026-05-04 23:55 | 25.63870 | -80.19527 | 9043 ft | 290 kts | 188° |
| 2026-05-04 23:55 | 25.61916 | -80.19981 | 10020 ft | 287 kts | 205° |
| 2026-05-04 23:55 | 25.58282 | -80.22150 | 11013 ft | 320 kts | 212° |
| 2026-05-04 23:56 | 25.56296 | -80.23393 | 11252 ft | 345 kts | 212° |
| 2026-05-04 23:56 | 25.54127 | -80.24758 | 11587 ft | 367 kts | 212° |
| 2026-05-04 23:56 | 25.51933 | -80.26138 | 12688 ft | 365 kts | 212° |
| 2026-05-04 23:56 | 25.49707 | -80.27540 | 13532 ft | 371 kts | 213° |
| 2026-05-04 23:57 | 25.47481 | -80.28944 | 14400 ft | 374 kts | 213° |
| 2026-05-04 23:57 | 25.45221 | -80.30369 | 15241 ft | 378 kts | 213° |
| 2026-05-04 23:57 | 25.42929 | -80.31814 | 16063 ft | 382 kts | 213° |
| 2026-05-04 23:57 | 25.40637 | -80.33259 | 16902 ft | 385 kts | 213° |
| 2026-05-04 23:58 | 25.38305 | -80.34728 | 17675 ft | 390 kts | 214° |
| 2026-05-04 23:58 | 25.35957 | -80.36207 | 18467 ft | 393 kts | 214° |
| 2026-05-04 23:58 | 25.33589 | -80.37698 | 19160 ft | 397 kts | 214° |
| 2026-05-04 23:58 | 25.31172 | -80.39220 | 19839 ft | 402 kts | 214° |
| 2026-05-04 23:59 | 25.28764 | -80.40734 | 20517 ft | 406 kts | 214° |
| 2026-05-04 23:59 | 25.26276 | -80.42298 | 21171 ft | 410 kts | 214° |
| 2026-05-04 23:59 | 25.23726 | -80.43770 | 21769 ft | 419 kts | 208° |
| 2026-05-04 23:59 | 25.20989 | -80.44826 | 22387 ft | 427 kts | 202° |
| 2026-05-05 00:00 | 25.18124 | -80.45778 | 22966 ft | 431 kts | 202° |
| 2026-05-05 00:00 | 25.17156 | -80.46101 | 23175 ft | 433 kts | 202° |
| 2026-05-05 00:00 | 25.12348 | -80.47691 | 24113 ft | 440 kts | 202° |
| 2026-05-05 00:00 | 25.09414 | -80.48655 | 24686 ft | 443 kts | 202° |
| 2026-05-05 00:01 | 25.06468 | -80.49621 | 25246 ft | 446 kts | 202° |
| 2026-05-05 00:01 | 25.03505 | -80.50590 | 25780 ft | 449 kts | 202° |
| 2026-05-05 00:01 | 25.00479 | -80.51580 | 26312 ft | 453 kts | 202° |
| 2026-05-05 00:01 | 24.97463 | -80.52567 | 26772 ft | 457 kts | 202° |
| 2026-05-05 00:02 | 24.94447 | -80.53551 | 27288 ft | 459 kts | 202° |
| 2026-05-05 00:02 | 24.91389 | -80.54549 | 27758 ft | 462 kts | 202° |
| 2026-05-05 00:02 | 24.88297 | -80.55598 | 28198 ft | 463 kts | 206° |
| 2026-05-05 00:02 | 24.85406 | -80.57028 | 28621 ft | 459 kts | 215° |
| 2026-05-05 00:03 | 24.82756 | -80.58969 | 29078 ft | 454 kts | 224° |
| 2026-05-05 00:03 | 24.80476 | -80.61320 | 29493 ft | 450 kts | 233° |
| 2026-05-05 00:03 | 24.78595 | -80.64002 | 30059 ft | 444 kts | 240° |
| 2026-05-05 00:03 | 24.76883 | -80.66777 | 30714 ft | 441 kts | 240° |
| 2026-05-05 00:04 | 24.75188 | -80.69569 | 31336 ft | 438 kts | 240° |
| 2026-05-05 00:04 | 24.73518 | -80.72361 | 31890 ft | 436 kts | 240° |
| 2026-05-05 00:04 | 24.71895 | -80.75102 | 32487 ft | 433 kts | 240° |
| 2026-05-05 00:04 | 24.70265 | -80.77871 | 33042 ft | 430 kts | 240° |
| 2026-05-05 00:05 | 24.68657 | -80.80614 | 33565 ft | 428 kts | 240° |
| 2026-05-05 00:05 | 24.67065 | -80.83336 | 34089 ft | 425 kts | 240° |
| 2026-05-05 00:05 | 24.65470 | -80.86065 | 34640 ft | 421 kts | 241° |
| 2026-05-05 00:05 | 24.63903 | -80.88747 | 35255 ft | 415 kts | 241° |
| 2026-05-05 00:06 | 24.62363 | -80.91386 | 35797 ft | 411 kts | 241° |
| 2026-05-05 00:06 | 24.60811 | -80.94018 | 36251 ft | 408 kts | 239° |
| 2026-05-05 00:06 | 24.59032 | -80.96391 | 36600 ft | 412 kts | 230° |
| 2026-05-05 00:06 | 24.56807 | -80.98453 | 36879 ft | 419 kts | 221° |
| 2026-05-05 00:07 | 24.54275 | -81.00060 | 36996 ft | 428 kts | 212° |
| 2026-05-05 00:07 | 24.48440 | -81.01794 | 36993 ft | 448 kts | 193° |
| 2026-05-05 00:08 | 24.42158 | -81.01711 | 36987 ft | 458 kts | 187° |
| 2026-05-05 00:08 | 24.35837 | -81.01553 | 36986 ft | 456 kts | 188° |
| 2026-05-05 00:09 | 24.29506 | -81.01462 | 36986 ft | 456 kts | 188° |
| 2026-05-05 00:09 | 24.23171 | -81.01395 | 36986 ft | 456 kts | 188° |
| 2026-05-05 00:10 | 24.16887 | -81.01338 | 36985 ft | 456 kts | 188° |
| 2026-05-05 00:10 | 24.10560 | -81.01283 | 36985 ft | 455 kts | 188° |
| 2026-05-05 00:11 | 24.04243 | -81.01229 | 36984 ft | 454 kts | 188° |
| 2026-05-05 00:11 | 23.97978 | -81.01122 | 36985 ft | 458 kts | 186° |
| 2026-05-05 00:12 | 23.91606 | -81.00847 | 36984 ft | 463 kts | 186° |
| 2026-05-05 00:12 | 23.85123 | -81.00571 | 36994 ft | 471 kts | 185° |
| 2026-05-05 00:13 | 23.78572 | -81.00291 | 36993 ft | 475 kts | 185° |
| 2026-05-05 00:13 | 23.71996 | -81.00011 | 36993 ft | 473 kts | 185° |
| 2026-05-05 00:14 | 23.65946 | -80.99755 | 36993 ft | 473 kts | 185° |
| 2026-05-05 00:14 | 23.59502 | -80.99483 | 36992 ft | 472 kts | 185° |
| 2026-05-05 00:15 | 23.52897 | -80.99206 | 36993 ft | 472 kts | 185° |
| 2026-05-05 00:15 | 23.46333 | -80.98930 | 36993 ft | 472 kts | 185° |
| 2026-05-05 00:16 | 23.39772 | -80.98653 | 36993 ft | 472 kts | 185° |
| 2026-05-05 00:16 | 23.33232 | -80.98380 | 36993 ft | 472 kts | 185° |
| 2026-05-05 00:17 | 23.26650 | -80.98103 | 36993 ft | 472 kts | 185° |
| 2026-05-05 00:17 | 23.20115 | -80.97827 | 36994 ft | 472 kts | 185° |
| 2026-05-05 00:18 | 23.13527 | -80.97550 | 36994 ft | 472 kts | 185° |
| 2026-05-05 00:18 | 23.06961 | -80.97272 | 36994 ft | 472 kts | 185° |
| 2026-05-05 00:19 | 23.00420 | -80.96991 | 36994 ft | 472 kts | 186° |
| 2026-05-05 00:19 | 22.93880 | -80.96735 | 36993 ft | 471 kts | 186° |
| 2026-05-05 00:20 | 22.87304 | -80.96478 | 36993 ft | 473 kts | 186° |
| 2026-05-05 00:20 | 22.80748 | -80.96220 | 36993 ft | 472 kts | 186° |
| 2026-05-05 00:21 | 22.74191 | -80.95963 | 36993 ft | 472 kts | 186° |
| 2026-05-05 00:21 | 22.67626 | -80.95706 | 36993 ft | 472 kts | 186° |
| 2026-05-05 00:22 | 22.61101 | -80.95451 | 36994 ft | 471 kts | 186° |
| 2026-05-05 00:22 | 22.54518 | -80.95194 | 36994 ft | 471 kts | 185° |
| 2026-05-05 00:23 | 22.47995 | -80.94939 | 36994 ft | 471 kts | 185° |
| 2026-05-05 00:23 | 22.41476 | -80.94685 | 36994 ft | 471 kts | 185° |
| 2026-05-05 00:24 | 22.34905 | -80.94429 | 36994 ft | 471 kts | 185° |
| 2026-05-05 00:24 | 22.28375 | -80.94175 | 36994 ft | 471 kts | 185° |
| 2026-05-05 00:25 | 22.21799 | -80.93919 | 36995 ft | 471 kts | 185° |
| 2026-05-05 00:25 | 22.15269 | -80.93665 | 37006 ft | 471 kts | 185° |
| 2026-05-05 00:26 | 22.08725 | -80.93411 | 37017 ft | 471 kts | 185° |
| 2026-05-05 00:26 | 22.02174 | -80.93157 | 37021 ft | 471 kts | 185° |
| 2026-05-05 00:27 | 21.95644 | -80.92904 | 37020 ft | 469 kts | 185° |
| 2026-05-05 00:27 | 21.89104 | -80.92651 | 37021 ft | 469 kts | 185° |
| 2026-05-05 00:28 | 21.82630 | -80.92400 | 37021 ft | 469 kts | 185° |
| 2026-05-05 00:28 | 21.76070 | -80.92147 | 37021 ft | 469 kts | 185° |
| 2026-05-05 00:29 | 21.69588 | -80.91897 | 37021 ft | 469 kts | 185° |
| 2026-05-05 00:29 | 21.63069 | -80.91646 | 37021 ft | 469 kts | 185° |
| 2026-05-05 00:30 | 21.56558 | -80.91395 | 37021 ft | 469 kts | 185° |
| 2026-05-05 00:30 | 21.50020 | -80.91142 | 37019 ft | 469 kts | 185° |
| 2026-05-05 00:31 | 21.43501 | -80.90890 | 37018 ft | 469 kts | 185° |
| 2026-05-05 00:31 | 21.36974 | -80.90636 | 37018 ft | 469 kts | 185° |
| 2026-05-05 00:32 | 21.30449 | -80.90384 | 37019 ft | 469 kts | 185° |
| 2026-05-05 00:32 | 21.23982 | -80.90133 | 37018 ft | 468 kts | 185° |
| 2026-05-05 00:33 | 21.17470 | -80.89882 | 37019 ft | 468 kts | 185° |
| 2026-05-05 00:33 | 21.10949 | -80.89630 | 37019 ft | 468 kts | 185° |
| 2026-05-05 00:34 | 21.04452 | -80.89368 | 37011 ft | 469 kts | 185° |
| 2026-05-05 00:34 | 20.97937 | -80.89081 | 37001 ft | 469 kts | 185° |
| 2026-05-05 00:35 | 20.91430 | -80.88794 | 36995 ft | 469 kts | 185° |
| 2026-05-05 00:35 | 20.84959 | -80.88511 | 36994 ft | 468 kts | 185° |
| 2026-05-05 00:36 | 20.78461 | -80.88226 | 36995 ft | 468 kts | 185° |
| 2026-05-05 00:36 | 20.71983 | -80.87942 | 36995 ft | 468 kts | 185° |
| 2026-05-05 00:37 | 20.65461 | -80.87656 | 36995 ft | 468 kts | 185° |
| 2026-05-05 00:37 | 20.58973 | -80.87373 | 36995 ft | 468 kts | 185° |
| 2026-05-05 00:38 | 20.52498 | -80.87090 | 36994 ft | 466 kts | 185° |
| 2026-05-05 00:38 | 20.46026 | -80.86807 | 36995 ft | 467 kts | 185° |
| 2026-05-05 00:39 | 20.39513 | -80.86524 | 36995 ft | 467 kts | 185° |
| 2026-05-05 00:39 | 20.33037 | -80.86241 | 36995 ft | 467 kts | 185° |
| 2026-05-05 00:40 | 20.26568 | -80.85960 | 36995 ft | 467 kts | 185° |
| 2026-05-05 00:40 | 20.20124 | -80.85679 | 36994 ft | 465 kts | 185° |
| 2026-05-05 00:41 | 20.13626 | -80.85397 | 36995 ft | 466 kts | 185° |
| 2026-05-05 00:41 | 20.07163 | -80.85117 | 36995 ft | 466 kts | 185° |
| 2026-05-05 00:42 | 20.00721 | -80.84837 | 36995 ft | 466 kts | 184° |
| 2026-05-05 00:42 | 19.94239 | -80.84529 | 36995 ft | 467 kts | 184° |
| 2026-05-05 00:43 | 19.87732 | -80.84215 | 36995 ft | 466 kts | 184° |
| 2026-05-05 00:43 | 19.81287 | -80.83904 | 36995 ft | 467 kts | 184° |
| 2026-05-05 00:44 | 19.74785 | -80.83591 | 36995 ft | 467 kts | 184° |
| 2026-05-05 00:44 | 19.68323 | -80.83281 | 36995 ft | 467 kts | 184° |
| 2026-05-05 00:45 | 19.61841 | -80.82970 | 36995 ft | 467 kts | 184° |
| 2026-05-05 00:45 | 19.55341 | -80.82658 | 36995 ft | 467 kts | 184° |
| 2026-05-05 00:46 | 19.48863 | -80.82348 | 36995 ft | 468 kts | 184° |
| 2026-05-05 00:46 | 19.42384 | -80.82037 | 36995 ft | 468 kts | 184° |
| 2026-05-05 00:47 | 19.35911 | -80.81727 | 36995 ft | 468 kts | 184° |
| 2026-05-05 00:47 | 19.29386 | -80.81415 | 36995 ft | 468 kts | 184° |
| 2026-05-05 00:48 | 19.22927 | -80.81107 | 36995 ft | 468 kts | 184° |
| 2026-05-05 00:48 | 19.16444 | -80.80798 | 36995 ft | 468 kts | 184° |
| 2026-05-05 00:49 | 19.09921 | -80.80487 | 36995 ft | 469 kts | 183° |
| 2026-05-05 00:49 | 19.03411 | -80.80177 | 36995 ft | 469 kts | 183° |
| 2026-05-05 00:50 | 18.96923 | -80.79869 | 36995 ft | 469 kts | 183° |
| 2026-05-05 00:50 | 18.90425 | -80.79561 | 36996 ft | 469 kts | 183° |
| 2026-05-05 00:51 | 18.83930 | -80.79253 | 36995 ft | 469 kts | 183° |
| 2026-05-05 00:51 | 18.77415 | -80.78944 | 36996 ft | 469 kts | 183° |
| 2026-05-05 00:52 | 18.70929 | -80.78637 | 36996 ft | 470 kts | 183° |
| 2026-05-05 00:52 | 18.64421 | -80.78329 | 36995 ft | 470 kts | 183° |
| 2026-05-05 00:53 | 18.57911 | -80.78020 | 36995 ft | 470 kts | 183° |
| 2026-05-05 00:53 | 18.51440 | -80.77715 | 36995 ft | 470 kts | 183° |
| 2026-05-05 00:54 | 18.44905 | -80.77406 | 36995 ft | 470 kts | 183° |
| 2026-05-05 00:54 | 18.38387 | -80.77099 | 36995 ft | 471 kts | 183° |
| 2026-05-05 00:55 | 18.31877 | -80.76791 | 36996 ft | 471 kts | 183° |
| 2026-05-05 00:55 | 18.25370 | -80.76485 | 36996 ft | 471 kts | 183° |
| 2026-05-05 00:56 | 18.18872 | -80.76179 | 36996 ft | 471 kts | 183° |
| 2026-05-05 00:56 | 18.12379 | -80.75873 | 36996 ft | 471 kts | 183° |
| 2026-05-05 00:57 | 18.05861 | -80.75567 | 36996 ft | 471 kts | 183° |
| 2026-05-05 00:57 | 17.99310 | -80.75259 | 36996 ft | 471 kts | 182° |
| 2026-05-05 00:58 | 17.92801 | -80.74954 | 36996 ft | 472 kts | 182° |
| 2026-05-05 00:58 | 17.86270 | -80.74648 | 36995 ft | 471 kts | 182° |
| 2026-05-05 00:59 | 17.79736 | -80.74341 | 36995 ft | 471 kts | 182° |
| 2026-05-05 00:59 | 17.73222 | -80.74036 | 36995 ft | 471 kts | 182° |
| 2026-05-05 01:00 | 17.66713 | -80.73731 | 36995 ft | 471 kts | 182° |
| 2026-05-05 01:00 | 17.60172 | -80.73425 | 36995 ft | 471 kts | 182° |
| 2026-05-05 01:01 | 17.53655 | -80.73120 | 36995 ft | 471 kts | 182° |
| 2026-05-05 01:01 | 17.47115 | -80.72815 | 36995 ft | 471 kts | 182° |
| 2026-05-05 01:02 | 17.40625 | -80.72511 | 36996 ft | 471 kts | 182° |
| 2026-05-05 01:02 | 17.34083 | -80.72207 | 36996 ft | 472 kts | 182° |
| 2026-05-05 01:03 | 17.27549 | -80.71902 | 36996 ft | 472 kts | 182° |
| 2026-05-05 01:03 | 17.21001 | -80.71596 | 36996 ft | 472 kts | 182° |
| 2026-05-05 01:04 | 17.14485 | -80.71293 | 36996 ft | 472 kts | 182° |
| 2026-05-05 01:04 | 17.04711 | -80.70837 | 36996 ft | 471 kts | 181° |
| 2026-05-05 01:05 | 16.98161 | -80.70533 | 36996 ft | 472 kts | 181° |
| 2026-05-05 01:05 | 16.91614 | -80.70229 | 37316 ft | 473 kts | 181° |
| 2026-05-05 01:06 | 16.88315 | -80.70075 | 37650 ft | 471 kts | 181° |
| 2026-05-05 01:06 | 16.85092 | -80.69926 | 37879 ft | 471 kts | 181° |
| 2026-05-05 01:06 | 16.81768 | -80.69772 | 38114 ft | 471 kts | 181° |
| 2026-05-05 01:06 | 16.78480 | -80.69620 | 38349 ft | 470 kts | 181° |
| 2026-05-05 01:07 | 16.75234 | -80.69469 | 38561 ft | 470 kts | 181° |
| 2026-05-05 01:07 | 16.71939 | -80.69316 | 38751 ft | 470 kts | 181° |
| 2026-05-05 01:07 | 16.68688 | -80.69166 | 38931 ft | 469 kts | 181° |
| 2026-05-05 01:07 | 16.65427 | -80.69015 | 38976 ft | 470 kts | 181° |
| 2026-05-05 01:08 | 16.58849 | -80.68710 | 38968 ft | 468 kts | 181° |
| 2026-05-05 01:08 | 16.52336 | -80.68409 | 38969 ft | 468 kts | 181° |
| 2026-05-05 01:09 | 16.45789 | -80.68107 | 38968 ft | 468 kts | 181° |
| 2026-05-05 01:09 | 16.39211 | -80.67802 | 38968 ft | 468 kts | 181° |
| 2026-05-05 01:10 | 16.32715 | -80.67503 | 38968 ft | 468 kts | 181° |
| 2026-05-05 01:10 | 16.26172 | -80.67200 | 38969 ft | 468 kts | 181° |
| 2026-05-05 01:11 | 16.19670 | -80.66901 | 38968 ft | 468 kts | 181° |
| 2026-05-05 01:11 | 16.13173 | -80.66601 | 38968 ft | 468 kts | 181° |
| 2026-05-05 01:12 | 16.06566 | -80.66297 | 38969 ft | 469 kts | 181° |
| 2026-05-05 01:12 | 16.00046 | -80.65997 | 38968 ft | 469 kts | 181° |
| 2026-05-05 01:13 | 15.93515 | -80.65697 | 38968 ft | 467 kts | 181° |
| 2026-05-05 01:13 | 15.87022 | -80.65398 | 38968 ft | 468 kts | 181° |
| 2026-05-05 01:14 | 15.80502 | -80.65099 | 38968 ft | 467 kts | 181° |
| 2026-05-05 01:14 | 15.74040 | -80.64803 | 38968 ft | 467 kts | 181° |
| 2026-05-05 01:15 | 15.67460 | -80.64500 | 38969 ft | 467 kts | 181° |
| 2026-05-05 01:15 | 15.60943 | -80.64201 | 38968 ft | 467 kts | 181° |
| 2026-05-05 01:16 | 15.54416 | -80.63903 | 38968 ft | 467 kts | 180° |
| 2026-05-05 01:16 | 15.50502 | -80.63723 | 38968 ft | 466 kts | 180° |
| 2026-05-05 01:17 | 15.41596 | -80.63316 | 38969 ft | 466 kts | 180° |
| 2026-05-05 01:17 | 15.35097 | -80.63019 | 38968 ft | 466 kts | 180° |
| 2026-05-05 01:18 | 15.28600 | -80.62721 | 38968 ft | 466 kts | 180° |
| 2026-05-05 01:18 | 15.22095 | -80.62425 | 38968 ft | 465 kts | 180° |
| 2026-05-05 01:19 | 15.15657 | -80.62131 | 38968 ft | 465 kts | 180° |
| 2026-05-05 01:19 | 15.09195 | -80.61835 | 38968 ft | 465 kts | 180° |
| 2026-05-05 01:20 | 15.02736 | -80.61541 | 38968 ft | 465 kts | 180° |
| 2026-05-05 01:20 | 14.96312 | -80.60757 | 38960 ft | 467 kts | 173° |
| 2026-05-05 01:21 | 14.89901 | -80.59669 | 38947 ft | 467 kts | 173° |
| 2026-05-05 01:21 | 14.83485 | -80.58572 | 38942 ft | 466 kts | 173° |
| 2026-05-05 01:22 | 14.77124 | -80.57481 | 38942 ft | 466 kts | 173° |
| 2026-05-05 01:22 | 14.70749 | -80.56387 | 38941 ft | 465 kts | 173° |
| 2026-05-05 01:23 | 14.64363 | -80.55292 | 38941 ft | 465 kts | 173° |
| 2026-05-05 01:23 | 14.57983 | -80.54197 | 38941 ft | 465 kts | 173° |
| 2026-05-05 01:24 | 14.51620 | -80.53106 | 38941 ft | 464 kts | 173° |
| 2026-05-05 01:24 | 14.45247 | -80.52014 | 38941 ft | 464 kts | 173° |
| 2026-05-05 01:25 | 14.38894 | -80.50925 | 38941 ft | 464 kts | 173° |
| 2026-05-05 01:25 | 14.32518 | -80.49834 | 38941 ft | 463 kts | 173° |
| 2026-05-05 01:26 | 14.26160 | -80.48747 | 38941 ft | 463 kts | 173° |
| 2026-05-05 01:26 | 14.19813 | -80.47662 | 38941 ft | 463 kts | 173° |
| 2026-05-05 01:27 | 14.13472 | -80.46578 | 38940 ft | 463 kts | 173° |
| 2026-05-05 01:27 | 14.07122 | -80.45493 | 38940 ft | 463 kts | 173° |
| 2026-05-05 01:28 | 14.00793 | -80.44413 | 38940 ft | 463 kts | 173° |
| 2026-05-05 01:28 | 13.94438 | -80.43330 | 38939 ft | 461 kts | 172° |
| 2026-05-05 01:29 | 13.88134 | -80.42255 | 38942 ft | 462 kts | 172° |
| 2026-05-05 01:29 | 13.81814 | -80.41178 | 38942 ft | 462 kts | 172° |
| 2026-05-05 01:30 | 13.75482 | -80.40100 | 38942 ft | 462 kts | 172° |
| 2026-05-05 01:30 | 13.69129 | -80.39019 | 38942 ft | 462 kts | 172° |
| 2026-05-05 01:31 | 13.62819 | -80.37946 | 38942 ft | 462 kts | 172° |
| 2026-05-05 01:31 | 13.56516 | -80.36874 | 38941 ft | 462 kts | 172° |
| 2026-05-05 01:32 | 13.50167 | -80.35795 | 38941 ft | 462 kts | 172° |
| 2026-05-05 01:32 | 13.43873 | -80.34726 | 38938 ft | 462 kts | 173° |
| 2026-05-05 01:33 | 13.37528 | -80.33649 | 38937 ft | 462 kts | 173° |
| 2026-05-05 01:33 | 13.31199 | -80.32575 | 38937 ft | 461 kts | 173° |
| 2026-05-05 01:34 | 13.24911 | -80.31509 | 38937 ft | 462 kts | 172° |
| 2026-05-05 01:34 | 13.18575 | -80.30435 | 38937 ft | 462 kts | 172° |
| 2026-05-05 01:35 | 13.12281 | -80.29369 | 38937 ft | 462 kts | 172° |
| 2026-05-05 01:35 | 13.05930 | -80.28294 | 38937 ft | 462 kts | 172° |
| 2026-05-05 01:36 | 12.99631 | -80.27228 | 38937 ft | 462 kts | 172° |
| 2026-05-05 01:36 | 12.93328 | -80.26163 | 38937 ft | 462 kts | 172° |
| 2026-05-05 01:37 | 12.87009 | -80.25095 | 38939 ft | 462 kts | 172° |
| 2026-05-05 01:37 | 12.80652 | -80.24020 | 38939 ft | 462 kts | 172° |
| 2026-05-05 01:38 | 12.74340 | -80.22954 | 38939 ft | 462 kts | 172° |
| 2026-05-05 01:38 | 12.68042 | -80.21891 | 38938 ft | 461 kts | 172° |
| 2026-05-05 01:39 | 12.61697 | -80.20821 | 38939 ft | 462 kts | 172° |
| 2026-05-05 01:39 | 12.55382 | -80.19756 | 38938 ft | 462 kts | 172° |
| 2026-05-05 01:40 | 12.49048 | -80.18689 | 38938 ft | 461 kts | 172° |
| 2026-05-05 01:40 | 12.42709 | -80.17621 | 38938 ft | 461 kts | 172° |
| 2026-05-05 01:41 | 12.36348 | -80.16550 | 38938 ft | 462 kts | 172° |
| 2026-05-05 01:41 | 12.29998 | -80.15482 | 38938 ft | 462 kts | 172° |
| 2026-05-05 01:42 | 12.23635 | -80.14412 | 38936 ft | 462 kts | 172° |
| 2026-05-05 01:42 | 12.17308 | -80.13348 | 38935 ft | 462 kts | 172° |
| 2026-05-05 01:43 | 12.11020 | -80.12292 | 38934 ft | 462 kts | 172° |
| 2026-05-05 01:43 | 12.04684 | -80.11227 | 38933 ft | 462 kts | 172° |
| 2026-05-05 01:44 | 11.98352 | -80.10165 | 38931 ft | 462 kts | 172° |
| 2026-05-05 01:44 | 11.92023 | -80.09103 | 38930 ft | 462 kts | 172° |
| 2026-05-05 01:45 | 11.87840 | -80.08401 | 38931 ft | 462 kts | 172° |
| 2026-05-05 01:45 | 11.81216 | -80.07291 | 38930 ft | 461 kts | 172° |
| 2026-05-05 01:46 | 11.75419 | -80.06319 | 38929 ft | 461 kts | 172° |
| 2026-05-05 01:46 | 11.69139 | -80.05267 | 38927 ft | 461 kts | 172° |
| 2026-05-05 01:47 | 11.62731 | -80.04194 | 38926 ft | 461 kts | 172° |
| 2026-05-05 01:47 | 11.56395 | -80.03134 | 38925 ft | 462 kts | 172° |
| 2026-05-05 01:48 | 11.50100 | -80.02081 | 38923 ft | 461 kts | 172° |
| 2026-05-05 01:48 | 11.43848 | -80.01036 | 38911 ft | 461 kts | 172° |
| 2026-05-05 01:49 | 11.37679 | -80.00005 | 38900 ft | 461 kts | 172° |
| 2026-05-05 01:49 | 11.31390 | -79.98954 | 38892 ft | 460 kts | 172° |
| 2026-05-05 01:50 | 11.25054 | -79.97897 | 38891 ft | 461 kts | 172° |
| 2026-05-05 01:50 | 11.18744 | -79.96843 | 38890 ft | 461 kts | 172° |
| 2026-05-05 01:51 | 11.12417 | -79.95788 | 38889 ft | 461 kts | 172° |
| 2026-05-05 01:51 | 11.06125 | -79.94739 | 38887 ft | 460 kts | 172° |
| 2026-05-05 01:52 | 10.99823 | -79.93688 | 38886 ft | 460 kts | 172° |
| 2026-05-05 01:52 | 10.93485 | -79.92632 | 38885 ft | 460 kts | 172° |
| 2026-05-05 01:53 | 10.87233 | -79.91591 | 38886 ft | 460 kts | 172° |
| 2026-05-05 01:53 | 10.80925 | -79.90541 | 38886 ft | 459 kts | 171° |
| 2026-05-05 01:54 | 10.74669 | -79.89500 | 38886 ft | 459 kts | 171° |
| 2026-05-05 01:54 | 10.68376 | -79.88454 | 38885 ft | 459 kts | 171° |
| 2026-05-05 01:55 | 10.65255 | -79.87935 | 38584 ft | 461 kts | 171° |
| 2026-05-05 01:55 | 10.62091 | -79.87408 | 38037 ft | 456 kts | 171° |
| 2026-05-05 01:55 | 10.58997 | -79.86894 | 37478 ft | 452 kts | 171° |
| 2026-05-05 01:55 | 10.55921 | -79.86383 | 36935 ft | 448 kts | 171° |
| 2026-05-05 01:56 | 10.52849 | -79.85873 | 36405 ft | 446 kts | 171° |
| 2026-05-05 01:56 | 10.49808 | -79.85368 | 35890 ft | 450 kts | 172° |
| 2026-05-05 01:56 | 10.46694 | -79.84850 | 35362 ft | 454 kts | 172° |
| 2026-05-05 01:56 | 10.43593 | -79.84192 | 34834 ft | 458 kts | 164° |
| 2026-05-05 01:57 | 10.40603 | -79.83044 | 34315 ft | 462 kts | 155° |
| 2026-05-05 01:57 | 10.37817 | -79.81489 | 33801 ft | 465 kts | 150° |
| 2026-05-05 01:57 | 10.35000 | -79.79795 | 33252 ft | 467 kts | 150° |
| 2026-05-05 01:57 | 10.32198 | -79.78109 | 32693 ft | 467 kts | 149° |
| 2026-05-05 01:58 | 10.29426 | -79.76433 | 32129 ft | 467 kts | 149° |
| 2026-05-05 01:58 | 10.26697 | -79.74779 | 31561 ft | 468 kts | 149° |
| 2026-05-05 01:58 | 10.23899 | -79.73083 | 30960 ft | 469 kts | 149° |
| 2026-05-05 01:58 | 10.21047 | -79.71352 | 30326 ft | 471 kts | 149° |
| 2026-05-05 01:59 | 10.18251 | -79.69655 | 29677 ft | 471 kts | 149° |
| 2026-05-05 01:59 | 10.15442 | -79.67949 | 28995 ft | 471 kts | 149° |
| 2026-05-05 01:59 | 10.12637 | -79.66246 | 28302 ft | 466 kts | 149° |
| 2026-05-05 01:59 | 10.09854 | -79.64558 | 27644 ft | 461 kts | 149° |
| 2026-05-05 02:00 | 10.07140 | -79.62910 | 27028 ft | 456 kts | 149° |
| 2026-05-05 02:00 | 10.04444 | -79.61275 | 26455 ft | 451 kts | 149° |
| 2026-05-05 02:00 | 10.01728 | -79.59627 | 25911 ft | 449 kts | 149° |
| 2026-05-05 02:00 | 9.99053 | -79.58005 | 25300 ft | 448 kts | 149° |
| 2026-05-05 02:01 | 9.96388 | -79.56389 | 24674 ft | 443 kts | 149° |
| 2026-05-05 02:01 | 9.93793 | -79.54816 | 24513 ft | 427 kts | 148° |
| 2026-05-05 02:01 | 9.91293 | -79.53301 | 24518 ft | 407 kts | 148° |
| 2026-05-05 02:01 | 9.89465 | -79.52193 | 24518 ft | 394 kts | 148° |
| 2026-05-05 02:02 | 9.86764 | -79.50566 | 24513 ft | 374 kts | 151° |
| 2026-05-05 02:02 | 9.84463 | -79.49439 | 24337 ft | 376 kts | 155° |
| 2026-05-05 02:02 | 9.82055 | -79.48352 | 23867 ft | 377 kts | 155° |
| 2026-05-05 02:02 | 9.79684 | -79.47277 | 23411 ft | 374 kts | 155° |
| 2026-05-05 02:03 | 9.77322 | -79.46207 | 22962 ft | 371 kts | 155° |
| 2026-05-05 02:03 | 9.74961 | -79.45138 | 22519 ft | 368 kts | 155° |
| 2026-05-05 02:03 | 9.72613 | -79.44075 | 22087 ft | 365 kts | 155° |
| 2026-05-05 02:03 | 9.70325 | -79.43040 | 21673 ft | 361 kts | 155° |
| 2026-05-05 02:04 | 9.68013 | -79.41994 | 21267 ft | 357 kts | 155° |
| 2026-05-05 02:04 | 9.65760 | -79.40975 | 20886 ft | 353 kts | 155° |
| 2026-05-05 02:04 | 9.63521 | -79.39964 | 20450 ft | 351 kts | 155° |
| 2026-05-05 02:04 | 9.61395 | -79.39002 | 20094 ft | 346 kts | 155° |
| 2026-05-05 02:05 | 9.59139 | -79.37982 | 19608 ft | 346 kts | 155° |
| 2026-05-05 02:05 | 9.57053 | -79.36887 | 19557 ft | 334 kts | 145° |
| 2026-05-05 02:05 | 9.55127 | -79.35491 | 19218 ft | 345 kts | 142° |
| 2026-05-05 02:05 | 9.53204 | -79.34063 | 18757 ft | 344 kts | 142° |
| 2026-05-05 02:06 | 9.51276 | -79.32632 | 18298 ft | 342 kts | 142° |
| 2026-05-05 02:06 | 9.49386 | -79.31226 | 17851 ft | 340 kts | 142° |
| 2026-05-05 02:06 | 9.47480 | -79.29804 | 17404 ft | 338 kts | 142° |
| 2026-05-05 02:06 | 9.45573 | -79.28384 | 16964 ft | 335 kts | 142° |
| 2026-05-05 02:07 | 9.43717 | -79.27000 | 16542 ft | 333 kts | 142° |
| 2026-05-05 02:07 | 9.41854 | -79.25612 | 16125 ft | 330 kts | 142° |
| 2026-05-05 02:07 | 9.40028 | -79.24251 | 15742 ft | 327 kts | 142° |
| 2026-05-05 02:07 | 9.38191 | -79.22882 | 15384 ft | 322 kts | 142° |
| 2026-05-05 02:08 | 9.36409 | -79.21555 | 15053 ft | 318 kts | 142° |
| 2026-05-05 02:08 | 9.34657 | -79.20249 | 14748 ft | 312 kts | 142° |
| 2026-05-05 02:08 | 9.32904 | -79.18942 | 14394 ft | 310 kts | 142° |
| 2026-05-05 02:08 | 9.31185 | -79.17662 | 14035 ft | 307 kts | 142° |
| 2026-05-05 02:09 | 9.29458 | -79.16382 | 13679 ft | 305 kts | 144° |
| 2026-05-05 02:09 | 9.27566 | -79.15436 | 13339 ft | 307 kts | 162° |
| 2026-05-05 02:09 | 9.25438 | -79.15153 | 12979 ft | 310 kts | 180° |
| 2026-05-05 02:09 | 9.23320 | -79.15579 | 12543 ft | 313 kts | 199° |
| 2026-05-05 02:10 | 9.21413 | -79.16630 | 12108 ft | 315 kts | 212° |
| 2026-05-05 02:10 | 9.19596 | -79.17875 | 11647 ft | 316 kts | 212° |
| 2026-05-05 02:10 | 9.17763 | -79.19108 | 11173 ft | 317 kts | 212° |
| 2026-05-05 02:10 | 9.15926 | -79.20340 | 10678 ft | 319 kts | 212° |
| 2026-05-05 02:11 | 9.14085 | -79.21573 | 10197 ft | 319 kts | 213° |
| 2026-05-05 02:11 | 9.12267 | -79.22792 | 10169 ft | 304 kts | 213° |
| 2026-05-05 02:11 | 9.10532 | -79.23953 | 9869 ft | 302 kts | 213° |
| 2026-05-05 02:11 | 9.08765 | -79.25135 | 9365 ft | 305 kts | 213° |
| 2026-05-05 02:12 | 9.07019 | -79.26302 | 9170 ft | 297 kts | 213° |
| 2026-05-05 02:12 | 9.03543 | -79.28629 | 8266 ft | 302 kts | 213° |
| 2026-05-05 02:12 | 9.01788 | -79.29737 | 8178 ft | 290 kts | 209° |
| 2026-05-05 02:13 | 9.00009 | -79.30715 | 7709 ft | 294 kts | 208° |
| 2026-05-05 02:13 | 8.98200 | -79.31706 | 7232 ft | 297 kts | 209° |
| 2026-05-05 02:13 | 8.96423 | -79.32683 | 7188 ft | 283 kts | 208° |
| 2026-05-05 02:13 | 8.94719 | -79.33617 | 7002 ft | 277 kts | 209° |
| 2026-05-05 02:14 | 8.93016 | -79.34550 | 6648 ft | 278 kts | 208° |
| 2026-05-05 02:14 | 8.91327 | -79.35477 | 6327 ft | 277 kts | 209° |
| 2026-05-05 02:14 | 8.89625 | -79.36407 | 6034 ft | 275 kts | 209° |
| 2026-05-05 02:14 | 8.87967 | -79.37318 | 5708 ft | 275 kts | 208° |
| 2026-05-05 02:15 | 8.86411 | -79.38401 | 5611 ft | 265 kts | 228° |
| 2026-05-05 02:15 | 8.85545 | -79.39968 | 5624 ft | 247 kts | 259° |
| 2026-05-05 02:15 | 8.85577 | -79.41627 | 5643 ft | 229 kts | 289° |
| 2026-05-05 02:15 | 8.86168 | -79.43072 | 5637 ft | 216 kts | 298° |
| 2026-05-05 02:16 | 8.86824 | -79.44376 | 5564 ft | 198 kts | 301° |
| 2026-05-05 02:16 | 8.87491 | -79.45595 | 5093 ft | 201 kts | 302° |
| 2026-05-05 02:16 | 8.88286 | -79.46771 | 4500 ft | 204 kts | 322° |
| 2026-05-05 02:16 | 8.89481 | -79.47306 | 4251 ft | 187 kts | 358° |
| 2026-05-05 02:17 | 8.90754 | -79.47029 | 3618 ft | 192 kts | 26° |
| 2026-05-05 02:17 | 8.91928 | -79.46433 | 3196 ft | 188 kts | 25° |
| 2026-05-05 02:17 | 8.93075 | -79.45832 | 2896 ft | 184 kts | 26° |
| 2026-05-05 02:17 | 8.94170 | -79.45242 | 2644 ft | 176 kts | 27° |
| 2026-05-05 02:18 | 8.95238 | -79.44650 | 2369 ft | 171 kts | 27° |
| 2026-05-05 02:18 | 8.96260 | -79.44083 | 2120 ft | 165 kts | 29° |
| 2026-05-05 02:18 | 8.97240 | -79.43528 | 1880 ft | 158 kts | 29° |
| 2026-05-05 02:18 | 8.98153 | -79.43012 | 1673 ft | 142 kts | 29° |
| 2026-05-05 02:19 | 8.98964 | -79.42550 | 1476 ft | 130 kts | 30° |
| 2026-05-05 02:19 | 8.99757 | -79.42100 | 1300 ft | 131 kts | 28° |
| 2026-05-05 02:19 | 9.00551 | -79.41650 | 1121 ft | 130 kts | 28° |
| 2026-05-05 02:19 | 9.01344 | -79.41200 | 946 ft | 132 kts | 28° |
| 2026-05-05 02:20 | 9.02135 | -79.40753 | 768 ft | 131 kts | 28° |
| 2026-05-05 02:20 | 9.02938 | -79.40298 | 591 ft | 132 kts | 28° |
| 2026-05-05 02:20 | 9.03735 | -79.39854 | 436 ft | 128 kts | 27° |
| 2026-05-05 02:20 | 9.04492 | -79.39420 | 249 ft | 123 kts | 28° |
| 2026-05-05 02:21 | 9.05222 | -79.38997 | 147 ft | 116 kts | 27° |
| 2026-05-05 02:21 | 9.05767 | -79.38690 | 145 ft | 57 kts | 29° |
| 2026-05-05 02:21 | 9.06014 | -79.38551 | 145 ft | 24 kts | 30° |
| 2026-05-05 02:21 | 9.06130 | -79.38486 | 145 ft | 17 kts | 29° |
| 2026-05-05 02:22 | 9.06233 | -79.38429 | 145 ft | 15 kts | 25° |
| 2026-05-05 02:22 | 9.06332 | -79.38396 | 145 ft | 14 kts | 12° |
| 2026-05-05 02:22 | 9.06424 | -79.38383 | 144 ft | 12 kts | 1° |
| 2026-05-05 02:22 | 9.06501 | -79.38382 | 144 ft | 8 kts | 0° |